Time;durP1;ratioP1;P1;durP2;ratioP2;P2;SDS_P1;SDS_P2;PMS_P1;PMS_P2;Temp;Humidity;BMP_temperature;BMP_pressure;BME280_temperature;BME280_humidity;BME280_pressure;Samples;Min_cycle;Max_cycle;Signal;HPM_P1;HPM_P2
2023/05/31 00:00:04;;;;;;;;;;;;;;;22.70;98.91;99788.22;5065623;28;20378;-78
2023/05/31 00:02:30;;;;;;;;;;;;;;;23.04;96.10;99764.88;5060765;28;20388;-78
2023/05/31 00:04:55;;;;;;;;;;;;;;;23.12;94.75;99766.94;5067758;28;19920;-78
2023/05/31 00:07:20;;;;;;;;;;;;;;;23.02;94.92;99772.03;5064501;28;19925;-79
2023/05/31 00:09:46;;;;;;;;;;;;;;;23.09;92.72;99759.28;5070540;28;19972;-79
2023/05/31 00:12:11;;;;;;;;;;;;;;;21.17;97.08;99809.69;5064164;28;19920;-78
2023/05/31 00:14:36;;;;;;;;;;;;;;;20.70;100.00;99834.41;5060060;28;19916;-78
2023/05/31 00:17:01;;;;;;;;;;;;;;;20.28;100.00;99846.47;5066486;28;19927;-79
2023/05/31 00:19:27;;;;;;;;;;;;;;;20.05;100.00;99861.72;5070346;28;20502;-78
2023/05/31 00:21:52;;;;;;;;;;;;;;;20.65;100.00;99839.91;5068681;28;20324;-78
2023/05/31 00:24:17;;;;;;;;;;;;;;;20.35;100.00;99845.19;5059918;28;19924;-79
2023/05/31 00:26:42;;;;;;;;;;;;;;;20.73;100.00;99830.75;5060451;28;19920;-79
2023/05/31 00:29:07;;;;;;;;;;;;;;;20.59;100.00;99845.50;5061205;28;20023;-79
2023/05/31 00:31:33;;;;;;;;;;;;;;;20.65;100.00;99833.84;5065590;28;19916;-79
2023/05/31 00:33:58;;;;;;;;;;;;;;;21.61;100.00;99798.16;5065406;28;19955;-79
2023/05/31 00:36:23;;;;;;;;;;;;;;;21.80;100.00;99795.16;5068686;28;19935;-78
2023/05/31 00:38:49;;;;;;;;;;;;;;;20.90;100.00;99820.09;5062574;28;19924;-78
2023/05/31 00:41:14;;;;;;;;;;;;;;;22.04;100.00;99792.69;5064911;28;20798;-78
2023/05/31 00:43:39;;;;;;;;;;;;;;;20.01;100.00;99860.22;5061781;28;20006;-78
2023/05/31 00:46:05;;;;;;;;;;;;;;;20.52;100.00;99836.31;5061169;28;19952;-77
2023/05/31 00:48:30;;;;;;;;;;;;;;;21.33;100.00;99812.19;5053903;28;19924;-78
2023/05/31 00:50:55;;;;;;;;;;;;;;;22.14;100.00;99770.13;5066217;28;19920;-78
2023/05/31 00:53:21;;;;;;;;;;;;;;;21.90;99.90;99782.31;5064173;28;19931;-78
2023/05/31 00:55:47;;;;;;;;;;;;;;;21.74;100.00;99792.97;5064087;28;19912;-78
2023/05/31 00:58:12;;;;;;;;;;;;;;;22.26;99.04;99778.16;5056414;28;19925;-78
2023/05/31 01:00:38;;;;;;;;;;;;;;;22.31;98.19;99771.66;5059943;28;19932;-77
2023/05/31 01:03:03;;;;;;;;;;;;;;;21.92;97.29;99776.00;5061941;28;20552;-77
2023/05/31 01:05:28;;;;;;;;;;;;;;;22.11;97.21;99774.78;5057572;28;19947;-77
2023/05/31 01:07:54;;;;;;;;;;;;;;;22.31;96.38;99770.84;5051922;28;19920;-77
2023/05/31 01:10:19;;;;;;;;;;;;;;;22.43;95.88;99758.66;5068257;28;19931;-79
2023/05/31 01:12:51;;;;;;;;;;;;;;;22.36;94.91;99760.84;5059223;28;19920;-79
2023/05/31 01:15:19;;;;;;;;;;;;;;;22.40;96.12;99770.19;5060836;28;20566;-79
2023/05/31 01:18:03;;;;;;;;;;;;;;;22.40;95.17;99769.34;5064774;28;19921;-79
2023/05/31 01:20:35;;;;;;;;;;;;;;;22.25;95.41;99776.50;5060002;28;19921;-79
2023/05/31 01:23:21;;;;;;;;;;;;;;;21.94;95.97;99775.91;5061264;28;19952;-78
2023/05/31 01:25:53;;;;;;;;;;;;;;;21.74;99.41;99797.38;5065170;28;19959;-79
2023/05/31 01:28:18;;;;;;;;;;;;;;;22.04;97.00;99763.84;5065867;28;19916;-78
2023/05/31 01:30:44;;;;;;;;;;;;;;;22.02;97.19;99776.22;5062746;28;20467;-79
2023/05/31 01:33:12;;;;;;;;;;;;;;;22.23;95.33;99765.25;5061985;28;20017;-79
2023/05/31 01:35:38;;;;;;;;;;;;;;;22.05;95.38;99768.13;5068463;28;20006;-78
2023/05/31 01:38:03;;;;;;;;;;;;;;;22.19;95.80;99766.38;5040783;28;19958;-78
2023/05/31 01:40:29;;;;;;;;;;;;;;;22.17;95.14;99758.63;5055361;28;20011;-80
2023/05/31 01:42:54;;;;;;;;;;;;;;;22.23;94.47;99763.47;5063689;28;19916;-78
2023/05/31 01:45:19;;;;;;;;;;;;;;;22.10;94.17;99763.44;5063399;28;19916;-78
2023/05/31 01:47:45;;;;;;;;;;;;;;;22.07;94.18;99763.63;5062871;28;20010;-79
2023/05/31 01:50:10;;;;;;;;;;;;;;;21.96;94.68;99766.13;5062512;28;19928;-79
2023/05/31 01:52:35;;;;;;;;;;;;;;;21.95;94.21;99759.22;5064403;28;19928;-79
2023/05/31 01:55:01;;;;;;;;;;;;;;;22.00;93.93;99754.50;5057926;28;19920;-79
2023/05/31 01:57:26;;;;;;;;;;;;;;;21.92;93.98;99755.03;5063721;28;20574;-79
2023/05/31 01:59:52;;;;;;;;;;;;;;;22.01;94.55;99758.81;5065337;28;20000;-79
2023/05/31 02:02:17;;;;;;;;;;;;;;;21.96;93.90;99755.66;5074643;28;19916;-79
2023/05/31 02:04:42;;;;;;;;;;;;;;;21.90;94.22;99761.31;5066840;28;19917;-79
2023/05/31 02:07:09;;;;;;;;;;;;;;;21.82;94.36;99766.22;5059267;28;19924;-78
2023/05/31 02:09:34;;;;;;;;;;;;;;;21.96;94.56;99755.66;5063379;28;20007;-79
2023/05/31 02:11:59;;;;;;;;;;;;;;;21.79;94.53;99763.81;5066425;28;20389;-79
2023/05/31 02:14:24;;;;;;;;;;;;;;;21.65;94.77;99757.69;5072186;28;20509;-79
2023/05/31 02:16:50;;;;;;;;;;;;;;;21.61;94.49;99755.38;5067023;28;20350;-79
2023/05/31 02:19:15;;;;;;;;;;;;;;;21.56;95.20;99758.31;5066081;28;19928;-79
2023/05/31 02:21:40;;;;;;;;;;;;;;;21.54;95.18;99754.94;5065764;28;20210;-79
2023/05/31 02:24:06;;;;;;;;;;;;;;;21.61;94.33;99756.22;5061653;28;19916;-79
2023/05/31 02:26:31;;;;;;;;;;;;;;;21.59;94.59;99755.47;5070482;28;19920;-79
2023/05/31 02:28:56;;;;;;;;;;;;;;;21.48;94.04;99763.19;5065752;28;19921;-79
2023/05/31 02:31:21;;;;;;;;;;;;;;;21.27;94.33;99761.00;5065498;28;20128;-79
2023/05/31 02:33:47;;;;;;;;;;;;;;;21.50;94.67;99769.19;5069842;28;19946;-79
2023/05/31 02:36:12;;;;;;;;;;;;;;;21.26;96.63;99788.13;5068078;28;19963;-80
2023/05/31 02:38:37;;;;;;;;;;;;;;;21.52;94.70;99768.13;5066309;28;19931;-78
2023/05/31 02:41:03;;;;;;;;;;;;;;;21.37;95.00;99773.50;5066115;28;20539;-78
2023/05/31 02:43:30;;;;;;;;;;;;;;;21.31;94.98;99772.97;5064680;28;19927;-79
2023/05/31 02:45:55;;;;;;;;;;;;;;;20.95;96.70;99783.16;5067112;28;19974;-79
2023/05/31 02:48:20;;;;;;;;;;;;;;;20.85;97.44;99796.00;5061763;28;19932;-79
2023/05/31 02:50:45;;;;;;;;;;;;;;;20.88;98.45;99794.00;5070287;28;19928;-79
2023/05/31 02:53:11;;;;;;;;;;;;;;;20.32;100.00;99806.13;5066031;28;20015;-79
2023/05/31 02:55:39;;;;;;;;;;;;;;;20.31;100.00;99804.44;5067108;28;19917;-79
2023/05/31 02:58:06;;;;;;;;;;;;;;;20.04;100.00;99807.72;5063642;28;19983;-79
2023/05/31 03:00:31;;;;;;;;;;;;;;;20.57;100.00;99784.59;5061961;28;19916;-79
2023/05/31 03:02:56;;;;;;;;;;;;;;;20.77;100.00;99780.72;5068295;28;20008;-79
2023/05/31 03:05:23;;;;;;;;;;;;;;;20.76;99.51;99773.81;5062167;28;19920;-79
2023/05/31 03:07:48;;;;;;;;;;;;;;;20.93;97.79;99764.06;5056726;28;20536;-79
2023/05/31 03:10:13;;;;;;;;;;;;;;;20.93;97.49;99764.91;5060471;28;20003;-76
2023/05/31 03:12:38;;;;;;;;;;;;;;;20.84;97.54;99773.34;5059145;28;20019;-78
2023/05/31 03:15:04;;;;;;;;;;;;;;;20.87;97.88;99781.03;5056774;28;19924;-77
2023/05/31 03:17:29;;;;;;;;;;;;;;;20.64;99.88;99790.28;5055524;28;19920;-79
2023/05/31 03:19:55;;;;;;;;;;;;;;;20.32;100.00;99806.13;5059576;28;19920;-77
2023/05/31 03:22:22;;;;;;;;;;;;;;;20.85;99.72;99778.50;5061406;28;19923;-78
2023/05/31 03:24:47;;;;;;;;;;;;;;;20.77;98.73;99785.13;5054853;28;19928;-78
2023/05/31 03:27:13;;;;;;;;;;;;;;;20.92;98.15;99772.88;5055121;28;19924;-78
2023/05/31 03:29:40;;;;;;;;;;;;;;;20.85;98.13;99773.25;5060457;28;19921;-79
2023/05/31 03:32:06;;;;;;;;;;;;;;;20.08;100.00;99812.78;5064778;28;19938;-79
2023/05/31 03:34:32;;;;;;;;;;;;;;;20.26;100.00;99806.47;5064955;28;19983;-79
2023/05/31 03:36:58;;;;;;;;;;;;;;;20.67;100.00;99785.69;5057049;28;19926;-79
2023/05/31 03:39:23;;;;;;;;;;;;;;;20.75;99.47;99776.53;5060079;28;19921;-78
2023/05/31 03:41:48;;;;;;;;;;;;;;;20.82;99.13;99778.69;5067084;28;19935;-79
2023/05/31 03:44:13;;;;;;;;;;;;;;;20.77;99.15;99778.13;5060937;28;19916;-78
2023/05/31 03:46:38;;;;;;;;;;;;;;;20.91;99.12;99776.41;5057896;28;19916;-79
2023/05/31 03:49:05;;;;;;;;;;;;;;;20.81;100.00;99792.69;5058962;28;19917;-79
2023/05/31 03:51:31;;;;;;;;;;;;;;;19.13;100.00;99838.06;5068082;28;19926;-79
2023/05/31 03:53:56;;;;;;;;;;;;;;;19.13;100.00;99840.66;5067293;28;20862;-77
2023/05/31 03:56:21;;;;;;;;;;;;;;;19.21;100.00;99822.81;5058458;28;19913;-80
2023/05/31 03:58:46;;;;;;;;;;;;;;;19.25;100.00;99818.28;5055918;28;19920;-80
2023/05/31 04:01:12;;;;;;;;;;;;;;;19.37;100.00;99809.78;5058985;28;20394;-81
2023/05/31 04:03:37;;;;;;;;;;;;;;;19.46;100.00;99816.25;5064240;28;19966;-81
2023/05/31 04:06:03;;;;;;;;;;;;;;;19.46;100.00;99810.19;5058429;28;19917;-81
2023/05/31 04:08:28;;;;;;;;;;;;;;;19.10;100.00;99819.97;5064810;28;19940;-79
2023/05/31 04:10:53;;;;;;;;;;;;;;;18.94;100.00;99824.31;5057791;28;19916;-85
2023/05/31 04:13:18;;;;;;;;;;;;;;;18.45;100.00;99834.66;5056852;28;19944;-80
2023/05/31 04:15:44;;;;;;;;;;;;;;;18.96;100.00;99822.47;5056929;28;19921;-79
2023/05/31 04:18:09;;;;;;;;;;;;;;;18.43;100.00;99839.13;5057610;28;19932;-81
2023/05/31 04:20:35;;;;;;;;;;;;;;;19.13;100.00;99804.13;5053558;28;19920;-78
2023/05/31 04:23:00;;;;;;;;;;;;;;;19.27;100.00;99820.81;5058534;28;19921;-80
2023/05/31 04:25:27;;;;;;;;;;;;;;;19.33;100.00;99815.25;5054155;28;20309;-78
2023/05/31 04:27:53;;;;;;;;;;;;;;;19.98;100.00;99797.66;5050979;28;19920;-79
2023/05/31 04:30:19;;;;;;;;;;;;;;;20.24;100.00;99792.66;5053969;28;19921;-79
2023/05/31 04:32:44;;;;;;;;;;;;;;;18.96;100.00;99814.66;5038200;28;19927;-79
2023/05/31 04:35:10;;;;;;;;;;;;;;;18.58;100.00;99833.13;5056558;28;19975;-78
2023/05/31 04:37:36;;;;;;;;;;;;;;;20.16;100.00;99811.41;5049621;28;19925;-81
2023/05/31 04:40:05;;;;;;;;;;;;;;;19.45;100.00;99817.16;5055081;28;19943;-80
2023/05/31 04:42:30;;;;;;;;;;;;;;;19.24;100.00;99827.03;5053683;28;19925;-78
2023/05/31 04:45:01;;;;;;;;;;;;;;;19.43;100.00;99826.84;5054949;28;19920;-79
2023/05/31 04:47:29;;;;;;;;;;;;;;;18.28;100.00;99846.81;5052445;28;20558;-78
2023/05/31 04:49:56;;;;;;;;;;;;;;;18.24;100.00;99850.47;5054951;28;19921;-80
2023/05/31 04:52:22;;;;;;;;;;;;;;;18.41;100.00;99838.38;5051681;28;19999;-77
2023/05/31 04:54:47;;;;;;;;;;;;;;;19.23;100.00;99814.91;5051394;28;20020;-79
2023/05/31 04:57:12;;;;;;;;;;;;;;;18.77;100.00;99828.69;5053382;28;19924;-78
2023/05/31 04:59:38;;;;;;;;;;;;;;;20.99;100.00;99789.88;5054933;28;19924;-79
2023/05/31 05:02:03;;;;;;;;;;;;;;;20.13;100.00;99795.91;5051116;28;19948;-79
2023/05/31 05:04:28;;;;;;;;;;;;;;;18.80;100.00;99843.31;5052260;28;19924;-79
2023/05/31 05:06:53;;;;;;;;;;;;;;;20.87;100.00;99801.97;5049447;28;19917;-80
2023/05/31 05:09:19;;;;;;;;;;;;;;;21.54;100.00;99783.78;5054181;28;19932;-78
2023/05/31 05:11:44;;;;;;;;;;;;;;;21.16;100.00;99784.41;5051793;28;19917;-80
2023/05/31 05:14:10;;;;;;;;;;;;;;;21.80;100.00;99783.84;5067013;28;19984;-80
2023/05/31 05:16:35;;;;;;;;;;;;;;;20.30;100.00;99812.34;5046614;28;19931;-78
2023/05/31 05:19:01;;;;;;;;;;;;;;;20.74;100.00;99809.72;5051881;28;20663;-79
2023/05/31 05:21:26;;;;;;;;;;;;;;;21.30;100.00;99810.59;5054867;28;19927;-77
2023/05/31 05:23:51;;;;;;;;;;;;;;;19.88;100.00;99842.69;5056381;28;19920;-77
2023/05/31 05:26:16;;;;;;;;;;;;;;;21.37;100.00;99810.19;5037780;28;19913;-78
2023/05/31 05:28:42;;;;;;;;;;;;;;;21.11;100.00;99804.81;5054494;28;19919;-77
2023/05/31 05:31:07;;;;;;;;;;;;;;;20.18;100.00;99825.22;5053685;28;19961;-78
2023/05/31 05:33:33;;;;;;;;;;;;;;;20.15;100.00;99848.13;5053519;28;20031;-78
2023/05/31 05:35:58;;;;;;;;;;;;;;;20.81;100.00;99818.88;5053787;28;20007;-78
2023/05/31 05:38:23;;;;;;;;;;;;;;;21.82;100.00;99785.41;5050347;28;20482;-78
2023/05/31 05:40:49;;;;;;;;;;;;;;;21.82;100.00;99805.56;5057242;28;19916;-77
2023/05/31 05:43:14;;;;;;;;;;;;;;;21.36;100.00;99824.22;5055882;28;19916;-76
2023/05/31 05:45:39;;;;;;;;;;;;;;;19.86;100.00;99871.53;5053472;28;19920;-76
2023/05/31 05:48:05;;;;;;;;;;;;;;;20.17;100.00;99869.78;5051500;28;20033;-79
2023/05/31 05:50:30;;;;;;;;;;;;;;;20.91;100.00;99849.72;5057137;28;19923;-78
2023/05/31 05:52:55;;;;;;;;;;;;;;;21.30;100.00;99842.03;5053682;28;19921;-78
2023/05/31 05:55:20;;;;;;;;;;;;;;;20.79;100.00;99833.84;5057316;28;19927;-77
2023/05/31 05:57:46;;;;;;;;;;;;;;;21.45;100.00;99842.03;5058401;28;19936;-78
2023/05/31 06:00:11;;;;;;;;;;;;;;;21.72;100.00;99835.00;5054626;28;19993;-78
2023/05/31 06:02:40;;;;;;;;;;;;;;;20.97;100.00;99855.44;5053749;28;19925;-78
2023/05/31 06:05:06;;;;;;;;;;;;;;;21.69;100.00;99840.47;5059352;28;19964;-77
2023/05/31 06:07:31;;;;;;;;;;;;;;;21.51;100.00;99839.03;5056398;28;20312;-78
2023/05/31 06:09:56;;;;;;;;;;;;;;;19.88;100.00;99880.13;5056742;28;19920;-77
2023/05/31 06:12:21;;;;;;;;;;;;;;;21.82;100.00;99843.09;5059247;28;20366;-77
2023/05/31 06:14:48;;;;;;;;;;;;;;;22.31;100.00;99820.69;5058657;28;19936;-76
2023/05/31 06:17:13;;;;;;;;;;;;;;;21.47;100.00;99832.28;5055828;28;19925;-80
2023/05/31 06:19:38;;;;;;;;;;;;;;;22.13;100.00;99810.44;5057342;28;19935;-78
2023/05/31 06:22:04;;;;;;;;;;;;;;;22.59;100.00;99819.63;5058211;28;19922;-79
2023/05/31 06:24:29;;;;;;;;;;;;;;;21.43;100.00;99839.50;5059886;28;20499;-77
2023/05/31 06:26:54;;;;;;;;;;;;;;;21.96;100.00;99847.44;5060410;28;19947;-77
2023/05/31 06:29:20;;;;;;;;;;;;;;;22.48;100.00;99825.63;5055330;28;19920;-78
2023/05/31 06:31:45;;;;;;;;;;;;;;;21.52;100.00;99866.91;5056608;28;19968;-79
2023/05/31 06:34:10;;;;;;;;;;;;;;;22.71;100.00;99831.91;5050870;28;21170;-76
2023/05/31 06:36:35;;;;;;;;;;;;;;;21.39;100.00;99866.78;5053582;28;20848;-78
2023/05/31 06:39:01;;;;;;;;;;;;;;;21.64;100.00;99868.72;5053798;28;19916;-78
2023/05/31 06:41:26;;;;;;;;;;;;;;;21.24;100.00;99863.38;5055083;28;20322;-79
2023/05/31 06:43:51;;;;;;;;;;;;;;;22.40;100.00;99848.06;5053264;28;20410;-77
2023/05/31 06:46:17;;;;;;;;;;;;;;;22.80;100.00;99824.34;5056305;28;19913;-76
2023/05/31 06:48:42;;;;;;;;;;;;;;;20.70;100.00;99873.66;5063145;28;20999;-77
2023/05/31 06:51:07;;;;;;;;;;;;;;;20.29;100.00;99889.16;5058448;28;19917;-79
2023/05/31 06:53:32;;;;;;;;;;;;;;;22.34;100.00;99817.84;5059340;28;19923;-79
2023/05/31 06:55:58;;;;;;;;;;;;;;;21.45;100.00;99849.88;5039855;28;20783;-77
2023/05/31 06:58:23;;;;;;;;;;;;;;;20.17;100.00;99880.25;5056246;28;20374;-79
2023/05/31 07:00:49;;;;;;;;;;;;;;;22.42;100.00;99830.44;5056843;28;19931;-77
2023/05/31 07:03:14;;;;;;;;;;;;;;;24.27;100.00;99775.97;5056091;28;19928;-78
2023/05/31 07:05:42;;;;;;;;;;;;;;;23.18;100.00;99792.78;5060593;28;19917;-77
2023/05/31 07:08:07;;;;;;;;;;;;;;;24.87;100.00;99758.22;5055290;28;20050;-78
2023/05/31 07:10:33;;;;;;;;;;;;;;;24.51;100.00;99784.66;5058641;28;19997;-78
2023/05/31 07:12:58;;;;;;;;;;;;;;;22.84;100.00;99820.56;5058453;28;20005;-77
2023/05/31 07:15:24;;;;;;;;;;;;;;;24.56;100.00;99766.72;5059053;28;19919;-79
2023/05/31 07:17:49;;;;;;;;;;;;;;;24.98;100.00;99777.47;5054560;28;20019;-78
2023/05/31 07:20:14;;;;;;;;;;;;;;;21.99;100.00;99839.41;5055184;28;19920;-78
2023/05/31 07:22:39;;;;;;;;;;;;;;;24.12;100.00;99788.53;5055751;28;19923;-80
2023/05/31 07:25:05;;;;;;;;;;;;;;;24.48;100.00;99769.13;5058344;28;19974;-80
2023/05/31 07:27:30;;;;;;;;;;;;;;;24.79;100.00;99782.50;5054932;28;19917;-78
2023/05/31 07:29:56;;;;;;;;;;;;;;;25.44;100.00;99736.03;5054396;28;19916;-80
2023/05/31 07:32:21;;;;;;;;;;;;;;;24.57;100.00;99768.41;5056401;28;20333;-80
2023/05/31 07:34:47;;;;;;;;;;;;;;;25.51;100.00;99746.91;5057634;28;19916;-77
2023/05/31 07:37:12;;;;;;;;;;;;;;;25.10;100.00;99759.00;5058919;28;20494;-78
2023/05/31 07:39:37;;;;;;;;;;;;;;;24.18;100.00;99788.09;5058247;28;19923;-77
2023/05/31 07:42:02;;;;;;;;;;;;;;;23.53;100.00;99802.53;5057436;28;19924;-79
2023/05/31 07:44:28;;;;;;;;;;;;;;;23.23;100.00;99790.66;5057327;28;19925;-77
2023/05/31 07:46:53;;;;;;;;;;;;;;;25.46;100.00;99757.84;5058105;28;19991;-78
2023/05/31 07:49:18;;;;;;;;;;;;;;;25.05;100.00;99757.56;5058973;28;19973;-80
2023/05/31 07:51:43;;;;;;;;;;;;;;;26.10;100.00;99745.56;5059064;28;19925;-80
2023/05/31 07:54:09;;;;;;;;;;;;;;;25.82;100.00;99751.31;5058541;28;19917;-80
2023/05/31 07:56:34;;;;;;;;;;;;;;;24.66;100.00;99755.47;5057037;28;19917;-79
2023/05/31 07:58:59;;;;;;;;;;;;;;;25.07;100.00;99748.72;5058063;28;20355;-77
2023/05/31 08:01:25;;;;;;;;;;;;;;;25.61;100.00;99747.81;5055346;28;20553;-79
2023/05/31 08:03:50;;;;;;;;;;;;;;;25.91;100.00;99727.78;5054205;28;19921;-80
2023/05/31 08:06:17;;;;;;;;;;;;;;;26.23;100.00;99723.25;5057371;28;19917;-76
2023/05/31 08:08:42;;;;;;;;;;;;;;;27.48;97.58;99713.13;5056749;28;19982;-78
2023/05/31 08:11:08;;;;;;;;;;;;;;;25.67;97.66;99734.94;5057159;28;19955;-78
2023/05/31 08:13:33;;;;;;;;;;;;;;;27.51;97.81;99710.22;5054439;28;19935;-78
2023/05/31 08:15:58;;;;;;;;;;;;;;;25.76;100.00;99756.28;5056702;28;19923;-79
2023/05/31 08:18:23;;;;;;;;;;;;;;;26.83;98.66;99719.88;5056896;28;19921;-79
2023/05/31 08:20:49;;;;;;;;;;;;;;;26.20;95.14;99725.31;5053316;28;20507;-79
2023/05/31 08:23:20;;;;;;;;;;;;;;;26.40;95.77;99718.31;5058027;28;20358;-78
2023/05/31 08:25:46;;;;;;;;;;;;;;;27.09;97.66;99725.47;5051147;28;19917;-79
2023/05/31 08:28:11;;;;;;;;;;;;;;;28.40;89.96;99671.94;5056115;28;19916;-80
2023/05/31 08:30:36;;;;;;;;;;;;;;;28.23;88.83;99689.44;5056880;28;19924;-80
2023/05/31 08:33:01;;;;;;;;;;;;;;;24.68;99.32;99769.34;5055544;28;20769;-80
2023/05/31 08:35:26;;;;;;;;;;;;;;;26.24;98.90;99727.53;5056169;28;19920;-79
2023/05/31 08:37:52;;;;;;;;;;;;;;;27.09;98.30;99731.59;5056459;28;19920;-79
2023/05/31 08:40:17;;;;;;;;;;;;;;;25.88;98.75;99744.72;5057910;28;19913;-79
2023/05/31 08:42:54;;;;;;;;;;;;;;;26.08;99.10;99741.22;5058644;28;20374;-80
2023/05/31 08:45:20;;;;;;;;;;;;;;;25.59;100.00;99755.88;5056756;28;19912;-80
2023/05/31 08:47:46;;;;;;;;;;;;;;;26.41;99.95;99735.81;5055808;28;19916;-80
2023/05/31 08:50:11;;;;;;;;;;;;;;;27.01;96.31;99712.94;5051513;28;19987;-80
2023/05/31 08:52:36;;;;;;;;;;;;;;;27.26;93.11;99695.75;5056358;28;20147;-80
2023/05/31 08:55:03;;;;;;;;;;;;;;;28.07;91.43;99682.09;5057357;28;19923;-79
2023/05/31 08:57:29;;;;;;;;;;;;;;;27.19;93.37;99714.91;5056198;28;19920;-78
2023/05/31 08:59:54;;;;;;;;;;;;;;;27.37;93.31;99707.13;5058145;28;19971;-78
2023/05/31 09:02:19;;;;;;;;;;;;;;;28.27;90.20;99676.75;5055771;28;19912;-78
2023/05/31 09:04:45;;;;;;;;;;;;;;;26.80;94.80;99709.56;5052548;28;20007;-79
2023/05/31 09:07:10;;;;;;;;;;;;;;;25.52;95.68;99712.50;5056375;28;19942;-77
2023/05/31 09:09:35;;;;;;;;;;;;;;;26.53;95.14;99691.69;5054305;28;19913;-78
2023/05/31 09:12:00;;;;;;;;;;;;;;;27.43;88.87;99662.44;5056978;28;19955;-77
2023/05/31 09:14:26;;;;;;;;;;;;;;;28.59;88.74;99678.97;5052083;28;19927;-79
2023/05/31 09:16:51;;;;;;;;;;;;;;;28.76;85.91;99656.13;5053481;28;19984;-76
2023/05/31 09:19:16;;;;;;;;;;;;;;;28.68;87.41;99666.66;5055652;28;19981;-79
2023/05/31 09:21:43;;;;;;;;;;;;;;;28.93;83.42;99647.34;5053895;28;19917;-79
2023/05/31 09:24:10;;;;;;;;;;;;;;;28.69;81.05;99642.66;5055170;28;19920;-79
2023/05/31 09:26:35;;;;;;;;;;;;;;;28.26;84.70;99662.66;5049121;28;19919;-79
2023/05/31 09:29:00;;;;;;;;;;;;;;;28.35;88.81;99688.28;5055146;28;20309;-78
2023/05/31 09:31:27;;;;;;;;;;;;;;;28.42;86.46;99669.13;5053940;28;21034;-77
2023/05/31 09:33:54;;;;;;;;;;;;;;;28.53;79.83;99637.16;5053566;28;19913;-78
2023/05/31 09:36:23;;;;;;;;;;;;;;;29.26;81.59;99638.88;5057901;28;20290;-78
2023/05/31 09:38:49;;;;;;;;;;;;;;;29.92;80.54;99630.38;5055378;28;20380;-79
2023/05/31 09:41:20;;;;;;;;;;;;;;;30.33;78.92;99627.91;5055329;28;19917;-78
2023/05/31 09:43:46;;;;;;;;;;;;;;;28.68;80.59;99648.09;5051248;28;19963;-78
2023/05/31 09:46:19;;;;;;;;;;;;;;;28.57;77.45;99615.50;5050971;28;19927;-79
2023/05/31 09:48:44;;;;;;;;;;;;;;;29.11;73.21;99598.81;5053946;28;19920;-80
2023/05/31 09:51:10;;;;;;;;;;;;;;;29.36;67.39;99575.94;5057461;28;20713;-79
2023/05/31 09:53:37;;;;;;;;;;;;;;;30.37;74.71;99608.00;5053744;28;19912;-76
2023/05/31 09:56:03;;;;;;;;;;;;;;;29.15;70.24;99595.69;5055717;28;20738;-78
2023/05/31 09:58:31;;;;;;;;;;;;;;;27.66;74.90;99627.72;5049472;28;20019;-78
2023/05/31 10:00:58;;;;;;;;;;;;;;;30.49;67.00;99566.00;5057313;28;19955;-79
2023/05/31 10:03:24;;;;;;;;;;;;;;;30.37;64.51;99562.81;5055551;28;19920;-78
2023/05/31 10:05:49;;;;;;;;;;;;;;;30.09;65.62;99570.19;5056155;28;20728;-77
2023/05/31 10:08:14;;;;;;;;;;;;;;;27.91;67.08;99590.06;5055589;28;20256;-79
2023/05/31 10:10:40;;;;;;;;;;;;;;;30.57;71.08;99575.81;5059064;28;19912;-81
2023/05/31 10:13:05;;;;;;;;;;;;;;;29.80;67.96;99575.88;5056417;28;19916;-76
2023/05/31 10:15:31;;;;;;;;;;;;;;;29.37;67.74;99582.91;5058001;28;19917;-76
2023/05/31 10:17:59;;;;;;;;;;;;;;;28.94;67.85;99584.53;5052623;28;20007;-77
2023/05/31 10:20:25;;;;;;;;;;;;;;;29.38;70.68;99596.03;5061831;28;19958;-79
2023/05/31 10:22:51;;;;;;;;;;;;;;;31.04;61.50;99535.28;5059907;28;19916;-79
2023/05/31 10:25:35;;;;;;;;;;;;;;;28.94;64.25;99576.59;5061171;28;19932;-77
2023/05/31 10:28:01;;;;;;;;;;;;;;;30.07;61.43;99548.28;5061360;28;19927;-76
2023/05/31 10:30:27;;;;;;;;;;;;;;;31.14;58.94;99540.47;5060982;28;19930;-78
2023/05/31 10:33:10;;;;;;;;;;;;;;;31.33;55.39;99517.97;5027246;22;19975;-40
2023/05/31 10:35:36;;;;;;;;;;;;;;;28.62;62.52;99562.06;5001757;28;19933;-40
2023/05/31 10:38:01;;;;;;;;;;;;;;;31.06;63.68;99543.94;5003048;28;19922;-40
2023/05/31 10:40:31;;;;;;;;;;;;;;;28.33;63.71;99560.44;5003664;28;19922;-40
2023/05/31 10:43:06;;;;;;;;;;;;;;;29.40;67.62;99567.53;5003998;28;19957;-41
2023/05/31 10:45:48;;;;;;;;;;;;;;;28.99;67.19;99558.41;5003945;28;19917;-40
2023/05/31 10:48:20;;;;;;;;;;;;;;;28.78;65.43;99551.63;5002327;28;19952;-40
2023/05/31 10:50:52;;;;;;;;;;;;;;;30.02;60.63;99524.03;5002879;28;20009;-40
2023/05/31 10:53:18;;;;;;;;;;;;;;;31.46;58.60;99515.63;4999611;28;19976;-41
2023/05/31 10:55:44;;;;;;;;;;;;;;;30.40;55.74;99503.19;5003567;28;20517;-40
2023/05/31 10:58:29;;;;;;;;;;;;;;;30.70;57.88;99512.38;4983753;28;19925;-40
2023/05/31 11:00:55;;;;;;;;;;;;;;;30.18;57.34;99512.63;5003529;28;19924;-40
2023/05/31 11:03:21;;;;;;;;;;;;;;;31.23;58.61;99507.50;5000033;28;19918;-41
2023/05/31 11:05:53;;;;;;;;;;;;;;;31.55;54.16;99501.28;5002566;28;19917;-41
2023/05/31 11:08:19;;;;;;;;;;;;;;;29.31;52.08;99495.97;5002693;28;19917;-41
2023/05/31 11:10:44;;;;;;;;;;;;;;;28.36;57.38;99522.22;5001299;28;19924;-40
2023/05/31 11:13:10;;;;;;;;;;;;;;;29.24;54.81;99502.91;5002112;28;20325;-40
2023/05/31 11:15:42;;;;;;;;;;;;;;;30.96;54.87;99495.41;5001891;28;19997;-40
2023/05/31 11:18:09;;;;;;;;;;;;;;;29.94;57.50;99511.53;5001013;28;19932;-40
2023/05/31 11:20:35;;;;;;;;;;;;;;;28.58;53.72;99486.50;5002643;28;19921;-40
2023/05/31 11:23:19;;;;;;;;;;;;;;;30.39;50.63;99467.81;5002648;28;20406;-40
2023/05/31 11:25:44;;;;;;;;;;;;;;;30.89;50.27;99468.66;5002809;28;20447;-40
2023/05/31 11:28:10;;;;;;;;;;;;;;;29.34;48.54;99477.94;5002794;28;19924;-41
2023/05/31 11:30:36;;;;;;;;;;;;;;;29.06;51.10;99493.16;5001278;28;19940;-40
2023/05/31 11:33:01;;;;;;;;;;;;;;;29.68;52.13;99476.28;5001293;28;19944;-41
2023/05/31 11:35:26;;;;;;;;;;;;;;;29.78;53.10;99500.88;5002777;28;19963;-41
2023/05/31 11:37:58;;;;;;;;;;;;;;;30.84;49.22;99471.81;5000606;28;19921;-41
2023/05/31 11:40:23;;;;;;;;;;;;;;;32.14;45.29;99436.03;5002717;28;20641;-41
2023/05/31 11:42:49;;;;;;;;;;;;;;;30.10;48.36;99468.25;5002953;28;20009;-41
2023/05/31 11:45:17;;;;;;;;;;;;;;;32.14;50.18;99462.69;5000733;28;20009;-41
2023/05/31 11:47:45;;;;;;;;;;;;;;;31.03;46.46;99464.47;5002373;28;20517;-41
2023/05/31 11:50:16;;;;;;;;;;;;;;;30.33;46.79;99468.47;5003119;28;19952;-41
2023/05/31 11:52:41;;;;;;;;;;;;;;;30.24;46.17;99458.81;5002576;28;19918;-41
2023/05/31 11:55:07;;;;;;;;;;;;;;;32.31;44.04;99426.94;5002380;28;20000;-41
2023/05/31 11:57:44;;;;;;;;;;;;;;;31.41;44.32;99446.09;5001807;28;19917;-41
2023/05/31 12:00:11;;;;;;;;;;;;;;;31.19;48.83;99461.78;5002296;28;19914;-41
2023/05/31 12:02:39;;;;;;;;;;;;;;;33.25;46.87;99435.38;5002442;28;20341;-41
2023/05/31 12:05:05;;;;;;;;;;;;;;;32.66;41.59;99416.66;5002419;28;19918;-41
2023/05/31 12:07:31;;;;;;;;;;;;;;;30.39;45.17;99446.56;5000460;28;19924;-41
2023/05/31 12:09:57;;;;;;;;;;;;;;;32.40;47.99;99446.34;5001153;28;19917;-41
2023/05/31 12:12:22;;;;;;;;;;;;;;;32.00;48.22;99457.16;5000835;28;19963;-41
2023/05/31 12:14:51;;;;;;;;;;;;;;;31.36;45.67;99440.41;5001752;28;20008;-41
2023/05/31 12:17:16;;;;;;;;;;;;;;;33.39;41.88;99408.84;5000843;28;20379;-41
2023/05/31 12:19:42;;;;;;;;;;;;;;;32.78;48.07;99451.72;5002270;28;19921;-41
2023/05/31 12:22:07;;;;;;;;;;;;;;;30.96;48.58;99450.19;5002312;28;19928;-41
2023/05/31 12:24:32;;;;;;;;;;;;;;;31.15;47.13;99420.53;5001658;28;20409;-41
2023/05/31 12:26:58;;;;;;;;;;;;;;;31.81;46.36;99420.25;5001609;28;20500;-41
2023/05/31 12:29:29;;;;;;;;;;;;;;;33.20;43.84;99391.59;5001693;28;20377;-41
2023/05/31 12:32:02;;;;;;;;;;;;;;;33.33;48.59;99443.28;5000917;28;20022;-41
2023/05/31 12:34:30;;;;;;;;;;;;;;;34.04;46.14;99410.63;4999791;28;19925;-41
2023/05/31 12:36:55;;;;;;;;;;;;;;;33.64;50.34;99426.25;5001037;28;19913;-41